Time;durP1;ratioP1;P1;durP2;ratioP2;P2;SDS_P1;SDS_P2;PMS_P1;PMS_P2;Temp;Humidity;BMP_temperature;BMP_pressure;BME280_temperature;BME280_humidity;BME280_pressure;Samples;Min_cycle;Max_cycle;Signal;HPM_P1;HPM_P2
2024/01/31 00:01:56;;;;;;;18.00;2.03;;;5.40;94.30;;;;;;5050323;28;20469;-49
2024/01/31 00:04:21;;;;;;;12.30;2.00;;;5.30;94.10;;;;;;5050485;28;20426;-48
2024/01/31 00:06:52;;;;;;;10.93;2.28;;;5.30;93.90;;;;;;5051637;28;20025;-50
2024/01/31 00:09:18;;;;;;;10.32;2.22;;;5.40;93.80;;;;;;5051515;28;20032;-49
2024/01/31 00:11:44;;;;;;;10.13;1.80;;;5.40;93.60;;;;;;5050191;28;20021;-48
2024/01/31 00:14:10;;;;;;;11.85;3.67;;;5.40;93.60;;;;;;5051570;28;20074;-49
2024/01/31 00:16:38;;;;;;;8.45;1.83;;;5.40;93.40;;;;;;5051730;28;20396;-53
2024/01/31 00:19:03;;;;;;;12.02;2.33;;;5.40;93.60;;;;;;5032626;28;20029;-51
2024/01/31 00:21:29;;;;;;;15.07;3.05;;;5.50;93.50;;;;;;5050777;28;20464;-51
2024/01/31 00:23:54;;;;;;;11.50;2.53;;;5.50;93.50;;;;;;5033786;28;20041;-54
2024/01/31 00:26:20;;;;;;;14.68;5.22;;;5.50;93.70;;;;;;5051185;28;20105;-52
2024/01/31 00:28:46;;;;;;;18.10;3.28;;;5.50;93.90;;;;;;5051314;28;20684;-53
2024/01/31 00:31:12;;;;;;;10.80;3.00;;;5.50;93.90;;;;;;5049361;28;20453;-51
2024/01/31 00:33:38;;;;;;;16.58;3.35;;;5.50;94.00;;;;;;5051394;28;20033;-49
2024/01/31 00:36:07;;;;;;;12.32;2.20;;;5.50;94.10;;;;;;5033089;28;20529;-49
2024/01/31 00:38:32;;;;;;;12.95;2.28;;;5.50;94.10;;;;;;5051331;28;20116;-48
2024/01/31 00:41:00;;;;;;;16.90;4.57;;;5.50;94.20;;;;;;5051219;28;20108;-49
2024/01/31 00:43:26;;;;;;;14.60;2.65;;;5.40;94.30;;;;;;5021775;28;20037;-50
2024/01/31 00:45:52;;;;;;;13.40;2.38;;;5.40;94.20;;;;;;5051394;28;20042;-50
2024/01/31 00:48:20;;;;;;;12.32;2.30;;;5.40;94.00;;;;;;5051168;28;20149;-49
2024/01/31 00:50:46;;;;;;;15.20;2.78;;;5.40;94.00;;;;;;5050426;28;20060;-48
2024/01/31 00:53:14;;;;;;;13.68;2.67;;;5.40;93.90;;;;;;5052116;28;20115;-49
2024/01/31 00:55:39;;;;;;;16.60;2.63;;;5.40;93.70;;;;;;5054528;28;20520;-48
2024/01/31 00:58:05;;;;;;;17.65;3.53;;;5.40;93.50;;;;;;5050282;28;20043;-48
2024/01/31 01:00:30;;;;;;;17.55;2.63;;;5.40;93.30;;;;;;5049968;28;20029;-49
2024/01/31 01:02:58;;;;;;;11.63;2.75;;;5.40;93.30;;;;;;5053293;28;20083;-48
2024/01/31 01:05:24;;;;;;;14.10;2.95;;;5.40;93.20;;;;;;5052817;28;20029;-50
2024/01/31 01:07:50;;;;;;;12.13;2.50;;;5.40;93.30;;;;;;5053629;28;20112;-50
2024/01/31 01:10:19;;;;;;;14.00;2.50;;;5.40;93.30;;;;;;5054386;28;20029;-50
2024/01/31 01:12:45;;;;;;;22.63;3.80;;;5.40;93.30;;;;;;5053579;28;20021;-49
2024/01/31 01:15:11;;;;;;;12.55;3.42;;;5.40;93.30;;;;;;5054054;28;20040;-49
2024/01/31 01:17:38;;;;;;;16.63;3.63;;;5.40;93.20;;;;;;5054355;28;20033;-48
2024/01/31 01:20:05;;;;;;;15.65;2.70;;;5.40;93.20;;;;;;5053158;28;20029;-50
2024/01/31 01:22:31;;;;;;;12.93;2.25;;;5.40;93.00;;;;;;5053526;28;20381;-50
2024/01/31 01:24:59;;;;;;;19.17;3.33;;;5.40;92.90;;;;;;5054345;28;20029;-49
2024/01/31 01:27:25;;;;;;;18.15;2.60;;;5.40;92.50;;;;;;5054129;28;20039;-48
2024/01/31 01:29:50;;;;;;;17.13;4.30;;;5.30;92.00;;;;;;5053539;28;20029;-48
2024/01/31 01:32:16;;;;;;;12.77;2.78;;;5.20;91.30;;;;;;5053600;28;20100;-47
2024/01/31 01:34:42;;;;;;;8.05;1.48;;;5.20;90.20;;;;;;5053734;28;20029;-47
2024/01/31 01:37:07;;;;;;;10.95;1.48;;;5.10;88.30;;;;;;5051569;28;20076;-47
2024/01/31 01:39:34;;;;;;;9.15;1.30;;;5.10;85.60;;;;;;5053438;28;20385;-49
2024/01/31 01:42:00;;;;;;;9.25;1.50;;;5.20;84.50;;;;;;5053740;28;20020;-47
2024/01/31 01:44:33;;;;;;;5.22;1.05;;;5.20;83.80;;;;;;5053796;28;20044;-46
2024/01/31 01:47:00;;;;;;;11.00;1.27;;;5.20;84.20;;;;;;5052694;28;20100;-48
2024/01/31 01:49:32;;;;;;;9.30;1.33;;;5.30;84.30;;;;;;5053454;28;20512;-47
2024/01/31 01:51:58;;;;;;;7.57;1.48;;;5.30;84.40;;;;;;5053079;28;20036;-46
2024/01/31 01:54:26;;;;;;;7.80;2.13;;;5.30;84.70;;;;;;5053551;28;20025;-47
2024/01/31 01:56:53;;;;;;;8.40;1.48;;;5.30;84.80;;;;;;5036233;28;20025;-51
2024/01/31 01:59:19;;;;;;;8.25;1.63;;;5.30;84.90;;;;;;5052893;28;20688;-46
2024/01/31 02:01:46;;;;;;;7.43;2.25;;;5.40;84.90;;;;;;5053441;28;20066;-48
2024/01/31 02:04:12;;;;;;;10.30;2.95;;;5.30;84.70;;;;;;5052994;28;20072;-47
2024/01/31 02:06:38;;;;;;;12.60;2.17;;;5.40;84.90;;;;;;5052223;28;20469;-46
2024/01/31 02:09:09;;;;;;;7.75;1.77;;;5.40;85.20;;;;;;5053054;28;20029;-48
2024/01/31 02:11:35;;;;;;;11.82;2.00;;;5.40;85.40;;;;;;5053188;28;20061;-46
2024/01/31 02:14:01;;;;;;;12.70;2.05;;;5.40;85.60;;;;;;5052913;28;20079;-49
2024/01/31 02:16:27;;;;;;;11.65;2.03;;;5.40;85.80;;;;;;5032758;28;20032;-49
2024/01/31 02:18:52;;;;;;;9.10;1.58;;;5.40;85.90;;;;;;5053109;28;20105;-53
2024/01/31 02:21:19;;;;;;;9.65;1.73;;;5.40;86.30;;;;;;5058735;28;20145;-50
2024/01/31 02:23:44;;;;;;;8.93;1.90;;;5.40;86.60;;;;;;5057531;28;20024;-47
2024/01/31 02:26:10;;;;;;;17.23;3.53;;;5.40;86.60;;;;;;5053083;28;20071;-47
2024/01/31 02:28:36;;;;;;;7.03;1.60;;;5.40;86.90;;;;;;5043322;28;20061;-51
2024/01/31 02:31:02;;;;;;;11.25;2.25;;;5.40;87.20;;;;;;5053018;28;20025;-51
2024/01/31 02:33:27;;;;;;;7.63;2.05;;;5.40;87.00;;;;;;5053137;28;20107;-49
2024/01/31 02:35:53;;;;;;;11.27;3.60;;;5.40;87.00;;;;;;5052589;28;20366;-52
2024/01/31 02:38:19;;;;;;;12.15;1.92;;;5.40;86.90;;;;;;5048202;28;20028;-46
2024/01/31 02:40:44;;;;;;;8.93;2.53;;;5.40;86.80;;;;;;5052934;28;20032;-48
2024/01/31 02:43:10;;;;;;;12.68;2.45;;;5.40;86.70;;;;;;5052508;28;20021;-47
2024/01/31 02:45:36;;;;;;;16.38;2.22;;;5.40;86.80;;;;;;5052806;28;20680;-47
2024/01/31 02:48:02;;;;;;;10.10;1.83;;;5.40;86.50;;;;;;5052139;28;20057;-47
2024/01/31 02:50:30;;;;;;;7.88;1.70;;;5.40;86.30;;;;;;5052631;28;20036;-49
2024/01/31 02:52:58;;;;;;;11.55;1.77;;;5.40;85.70;;;;;;5052590;28;20335;-48
2024/01/31 02:55:24;;;;;;;9.57;1.42;;;5.40;85.70;;;;;;5052581;28;20029;-49
2024/01/31 02:57:49;;;;;;;8.80;1.67;;;5.40;85.50;;;;;;5051915;28;20116;-46
2024/01/31 03:00:17;;;;;;;5.10;1.70;;;5.40;85.50;;;;;;5052244;28;20230;-47
2024/01/31 03:02:43;;;;;;;8.20;1.83;;;5.40;85.60;;;;;;5052496;28;20040;-47
2024/01/31 03:05:11;;;;;;;8.88;1.83;;;5.40;85.40;;;;;;5051022;28;20044;-47
2024/01/31 03:07:36;;;;;;;14.75;2.38;;;5.50;85.60;;;;;;5052174;28;20025;-47
2024/01/31 03:10:02;;;;;;;6.30;1.33;;;5.50;85.70;;;;;;5052184;28;20035;-46
2024/01/31 03:12:28;;;;;;;12.70;1.98;;;5.50;85.70;;;;;;5052203;28;20024;-46
2024/01/31 03:14:54;;;;;;;8.48;1.50;;;5.50;86.00;;;;;;5051742;28;20021;-47
2024/01/31 03:17:19;;;;;;;5.55;1.42;;;5.50;86.30;;;;;;5050475;28;20033;-49
2024/01/31 03:19:45;;;;;;;8.45;1.40;;;5.50;86.40;;;;;;5051964;28;20020;-47
2024/01/31 03:22:10;;;;;;;9.88;1.80;;;5.50;86.60;;;;;;5050277;28;20485;-50
2024/01/31 03:24:38;;;;;;;9.40;1.38;;;5.40;86.80;;;;;;5052071;28;20083;-48
2024/01/31 03:27:04;;;;;;;8.23;1.77;;;5.40;86.90;;;;;;5052165;28;20021;-52
2024/01/31 03:29:32;;;;;;;12.82;1.35;;;5.40;87.00;;;;;;5051697;28;20044;-47
2024/01/31 03:31:58;;;;;;;6.50;1.52;;;5.40;87.10;;;;;;5043212;28;20524;-51
2024/01/31 03:34:24;;;;;;;7.38;1.55;;;5.30;87.20;;;;;;5051301;28;20029;-47
2024/01/31 03:36:49;;;;;;;5.20;1.40;;;5.30;87.30;;;;;;5046189;28;20033;-46
2024/01/31 03:39:15;;;;;;;7.63;2.08;;;5.30;87.20;;;;;;5052103;28;20502;-48
2024/01/31 03:41:46;;;;;;;7.53;1.60;;;5.20;86.90;;;;;;5052308;28;20100;-46
2024/01/31 03:44:13;;;;;;;9.15;3.13;;;5.20;87.00;;;;;;5051611;28;20101;-52
2024/01/31 03:46:39;;;;;;;10.25;1.38;;;5.20;86.80;;;;;;5052152;28;20036;-48
2024/01/31 03:49:07;;;;;;;10.30;1.65;;;5.20;86.50;;;;;;5033974;28;20086;-48
2024/01/31 03:51:32;;;;;;;7.15;1.58;;;5.20;86.40;;;;;;5050792;28;20068;-50
2024/01/31 03:53:59;;;;;;;7.38;2.03;;;5.10;85.90;;;;;;5051954;28;20424;-48
2024/01/31 03:56:25;;;;;;;11.32;2.70;;;5.10;85.70;;;;;;5051914;28;20017;-47
2024/01/31 03:58:50;;;;;;;9.13;1.83;;;5.00;85.60;;;;;;5051325;28;20028;-50
2024/01/31 04:01:17;;;;;;;9.93;2.08;;;5.00;85.60;;;;;;5033985;28;20037;-46
2024/01/31 04:03:46;;;;;;;7.35;1.48;;;5.00;85.30;;;;;;5051841;28;20029;-51
2024/01/31 04:06:12;;;;;;;7.15;1.45;;;5.00;85.20;;;;;;5050996;28;20061;-52
2024/01/31 04:08:40;;;;;;;8.88;1.90;;;5.00;85.30;;;;;;5051876;28;20504;-50
2024/01/31 04:11:08;;;;;;;12.75;1.52;;;5.00;85.30;;;;;;5051756;28;20037;-50
2024/01/31 04:13:34;;;;;;;17.55;3.78;;;4.90;85.50;;;;;;5051906;28;20033;-48
2024/01/31 04:16:00;;;;;;;10.00;2.60;;;4.90;85.40;;;;;;5051361;28;20036;-51
2024/01/31 04:18:25;;;;;;;7.78;2.25;;;4.90;85.30;;;;;;5051621;28;20037;-50
2024/01/31 04:20:51;;;;;;;9.70;2.50;;;4.80;85.30;;;;;;5050970;28;20044;-49
2024/01/31 04:23:17;;;;;;;5.32;1.73;;;4.70;85.30;;;;;;5051008;28;20376;-49
2024/01/31 04:25:43;;;;;;;7.75;1.45;;;4.60;85.40;;;;;;5051612;28;20414;-46
2024/01/31 04:28:08;;;;;;;8.68;1.92;;;4.60;85.40;;;;;;5053867;28;20041;-47
2024/01/31 04:30:34;;;;;;;8.10;1.50;;;4.50;85.50;;;;;;5055354;28;20017;-47
2024/01/31 04:33:03;;;;;;;10.00;1.88;;;4.40;85.60;;;;;;5044941;28;20036;-50
2024/01/31 04:35:28;;;;;;;10.98;2.35;;;4.40;85.70;;;;;;5055553;28;20502;-48
2024/01/31 04:37:54;;;;;;;10.25;3.22;;;4.40;85.70;;;;;;5054823;28;20115;-51
2024/01/31 04:40:20;;;;;;;13.77;5.07;;;4.40;86.10;;;;;;5037777;28;20021;-50
2024/01/31 04:42:47;;;;;;;16.48;5.80;;;4.40;86.20;;;;;;5055192;28;20353;-48
2024/01/31 04:45:13;;;;;;;15.88;6.55;;;4.40;86.20;;;;;;5054766;28;20025;-52
2024/01/31 04:47:41;;;;;;;16.63;4.15;;;4.40;86.10;;;;;;5054826;28;20033;-48
2024/01/31 04:50:07;;;;;;;15.90;3.70;;;4.40;86.20;;;;;;5054892;28;20111;-47
2024/01/31 04:52:33;;;;;;;8.98;2.25;;;4.40;86.30;;;;;;5053124;28;20120;-49
2024/01/31 04:55:01;;;;;;;10.05;3.05;;;4.40;86.30;;;;;;5054877;28;20039;-49
2024/01/31 04:57:26;;;;;;;21.50;3.33;;;4.40;86.50;;;;;;5054957;28;20025;-47
2024/01/31 04:59:54;;;;;;;6.78;1.50;;;4.40;86.60;;;;;;5054565;28;20514;-48
2024/01/31 05:02:20;;;;;;;6.40;1.50;;;4.40;86.50;;;;;;5053176;28;20029;-49
2024/01/31 05:04:45;;;;;;;8.65;1.23;;;4.50;86.50;;;;;;5054582;28;20112;-50
2024/01/31 05:07:11;;;;;;;9.07;1.75;;;4.50;86.50;;;;;;5053371;28;20024;-51
2024/01/31 05:09:37;;;;;;;9.68;1.90;;;4.60;86.60;;;;;;5053694;28;20029;-53
2024/01/31 05:12:05;;;;;;;12.27;2.22;;;4.60;86.50;;;;;;5054363;28;20032;-47
2024/01/31 05:14:30;;;;;;;9.25;1.60;;;4.70;86.50;;;;;;5054483;28;20025;-48
2024/01/31 05:16:56;;;;;;;9.75;2.30;;;4.80;86.50;;;;;;5054464;28;20096;-47
2024/01/31 05:19:24;;;;;;;12.05;2.10;;;4.80;86.40;;;;;;5054079;28;20068;-52
2024/01/31 05:21:52;;;;;;;10.18;1.75;;;4.70;86.60;;;;;;5054360;28;20056;-46
2024/01/31 05:24:18;;;;;;;7.07;1.67;;;4.80;86.50;;;;;;5053425;28;20480;-48
2024/01/31 05:26:51;;;;;;;8.93;1.83;;;4.90;86.60;;;;;;5054242;28;20029;-46
2024/01/31 05:29:19;;;;;;;9.52;3.97;;;4.80;86.50;;;;;;5053735;28;20029;-46
2024/01/31 05:31:47;;;;;;;9.50;2.20;;;4.90;86.70;;;;;;5054050;28;20092;-50
2024/01/31 05:34:13;;;;;;;9.93;1.38;;;4.80;86.80;;;;;;5054297;28;20446;-50
2024/01/31 05:36:38;;;;;;;9.00;1.67;;;4.90;87.10;;;;;;5053838;28;20154;-51
2024/01/31 05:39:04;;;;;;;6.20;1.50;;;4.90;87.10;;;;;;5052219;28;20446;-50
2024/01/31 05:41:30;;;;;;;6.68;1.50;;;4.90;87.20;;;;;;5053287;28;20116;-51
2024/01/31 05:43:55;;;;;;;11.27;2.53;;;4.90;87.20;;;;;;5053222;28;20059;-48
2024/01/31 05:46:21;;;;;;;8.85;2.05;;;4.90;87.30;;;;;;5052013;28;20120;-50
2024/01/31 05:48:47;;;;;;;7.13;1.95;;;4.90;87.20;;;;;;5053160;28;20848;-52
2024/01/31 05:51:14;;;;;;;9.48;1.52;;;4.90;87.10;;;;;;5052850;28;20025;-51
2024/01/31 05:53:43;;;;;;;10.98;2.67;;;4.90;87.10;;;;;;5051994;28;20033;-47
2024/01/31 05:56:08;;;;;;;9.50;1.95;;;4.90;87.10;;;;;;5052625;28;20100;-52
2024/01/31 05:58:36;;;;;;;7.32;1.63;;;4.90;86.90;;;;;;5052280;28;20175;-50
2024/01/31 06:01:04;;;;;;;5.40;1.48;;;4.90;87.00;;;;;;5050525;28;20036;-51
2024/01/31 06:03:32;;;;;;;8.52;1.70;;;4.90;86.90;;;;;;5051596;28;20021;-48
2024/01/31 06:05:58;;;;;;;10.65;1.67;;;4.90;87.10;;;;;;5051902;28;20024;-49
2024/01/31 06:08:24;;;;;;;6.95;1.70;;;4.80;87.00;;;;;;5051183;28;21397;-48
2024/01/31 06:10:54;;;;;;;9.32;1.42;;;4.80;87.00;;;;;;5051459;28;20019;-49
2024/01/31 06:13:20;;;;;;;6.90;1.95;;;4.70;87.00;;;;;;5052139;28;20790;-51
2024/01/31 06:15:46;;;;;;;9.02;2.03;;;4.60;87.10;;;;;;5051817;28;20037;-48
2024/01/31 06:18:15;;;;;;;9.30;1.90;;;4.60;87.20;;;;;;5052010;28;20024;-47
2024/01/31 06:20:43;;;;;;;6.80;1.70;;;4.60;87.30;;;;;;5051626;28;20372;-47
2024/01/31 06:23:10;;;;;;;13.27;1.75;;;4.60;87.50;;;;;;5048693;28;20303;-49
2024/01/31 06:25:36;;;;;;;8.20;1.67;;;4.50;87.50;;;;;;5051044;28;20016;-50
2024/01/31 06:28:01;;;;;;;14.80;1.77;;;4.50;87.70;;;;;;5051225;28;20045;-49
2024/01/31 06:30:44;;;;;;;10.70;2.30;;;4.50;87.70;;;;;;5050313;28;21225;-53
2024/01/31 06:33:11;;;;;;;7.00;1.80;;;4.40;87.50;;;;;;5051606;28;20507;-50
2024/01/31 06:35:42;;;;;;;9.48;1.52;;;4.30;87.60;;;;;;5032538;28;20044;-47
2024/01/31 06:38:10;;;;;;;12.38;2.63;;;4.30;87.80;;;;;;5051069;28;20759;-48
2024/01/31 06:40:36;;;;;;;8.23;1.95;;;4.20;87.80;;;;;;5047469;28;20059;-49
2024/01/31 06:43:02;;;;;;;14.82;1.80;;;4.20;87.90;;;;;;5049188;28;20473;-49
2024/01/31 06:45:28;;;;;;;11.13;2.45;;;4.10;88.00;;;;;;5046548;28;20020;-50
2024/01/31 06:47:53;;;;;;;9.23;2.05;;;4.20;88.30;;;;;;5051100;28;20426;-48
2024/01/31 06:50:20;;;;;;;9.18;2.13;;;4.10;88.40;;;;;;5050155;28;20112;-51
2024/01/31 06:52:48;;;;;;;12.18;3.47;;;4.10;88.40;;;;;;5045845;28;20044;-53
2024/01/31 06:55:14;;;;;;;10.02;2.00;;;4.00;88.10;;;;;;5045706;28;20037;-48
2024/01/31 06:57:41;;;;;;;15.27;1.90;;;4.00;88.00;;;;;;5052261;28;20104;-46
2024/01/31 07:00:10;;;;;;;10.55;2.50;;;3.90;88.30;;;;;;5051362;28;20083;-50
2024/01/31 07:02:36;;;;;;;11.63;2.20;;;3.90;88.30;;;;;;5044703;28;20041;-52
2024/01/31 07:05:04;;;;;;;6.82;2.17;;;3.90;88.50;;;;;;5046681;28;20369;-46
2024/01/31 07:07:30;;;;;;;10.35;1.80;;;3.90;88.70;;;;;;5030749;28;20091;-47
2024/01/31 07:09:55;;;;;;;8.80;1.80;;;3.90;88.90;;;;;;5048581;28;20047;-51
2024/01/31 07:12:21;;;;;;;8.43;2.45;;;3.90;89.10;;;;;;5038945;28;20354;-48
2024/01/31 07:14:49;;;;;;;7.72;1.73;;;3.90;89.20;;;;;;5039225;28;20029;-48
2024/01/31 07:17:15;;;;;;;10.90;1.85;;;3.90;89.30;;;;;;5042355;28;20141;-51
2024/01/31 07:19:46;;;;;;;7.60;2.30;;;3.90;89.40;;;;;;5044481;28;20104;-50
2024/01/31 07:22:11;;;;;;;7.68;2.03;;;3.90;89.60;;;;;;5021305;28;20485;-50
2024/01/31 07:24:41;;;;;;;14.50;1.77;;;4.00;89.60;;;;;;5024649;28;20021;-51
2024/01/31 07:27:09;;;;;;;5.07;1.73;;;4.00;89.60;;;;;;5024133;28;20022;-48
2024/01/31 07:29:35;;;;;;;10.18;1.80;;;4.00;89.60;;;;;;5029387;28;20042;-51
2024/01/31 07:32:00;;;;;;;7.78;1.90;;;4.10;89.70;;;;;;5028684;28;20052;-50
2024/01/31 07:34:26;;;;;;;15.30;2.35;;;4.10;89.60;;;;;;5029527;28;20026;-49
2024/01/31 07:36:52;;;;;;;8.25;1.90;;;4.20;89.60;;;;;;5031341;28;20488;-49
2024/01/31 07:39:17;;;;;;;8.80;1.65;;;4.20;89.50;;;;;;5028572;28;20025;-50
2024/01/31 07:41:46;;;;;;;10.48;2.17;;;4.30;89.50;;;;;;5031283;28;20049;-53
2024/01/31 07:44:11;;;;;;;12.10;2.33;;;4.30;89.40;;;;;;5030740;28;20033;-46
2024/01/31 07:46:39;;;;;;;15.73;3.00;;;4.40;89.20;;;;;;5029920;28;20034;-48
2024/01/31 07:49:06;;;;;;;8.32;1.42;;;4.40;89.20;;;;;;5030403;28;20017;-48
2024/01/31 07:51:40;;;;;;;6.93;1.48;;;4.40;89.00;;;;;;5029065;28;20033;-50
2024/01/31 07:54:06;;;;;;;7.15;1.88;;;4.40;88.90;;;;;;5028425;28;20048;-49
2024/01/31 07:56:34;;;;;;;8.32;2.33;;;4.50;88.80;;;;;;5012091;28;20439;-48
2024/01/31 07:58:59;;;;;;;10.52;1.70;;;4.50;88.50;;;;;;5029209;28;20030;-49
2024/01/31 08:01:25;;;;;;;9.55;1.85;;;4.60;88.50;;;;;;5025527;28;20040;-49
2024/01/31 08:03:50;;;;;;;8.68;1.75;;;4.60;88.40;;;;;;5034292;28;20466;-51
2024/01/31 08:06:16;;;;;;;7.07;1.20;;;4.70;88.30;;;;;;5031595;28;20064;-50
2024/01/31 08:08:45;;;;;;;10.13;1.42;;;4.70;88.30;;;;;;5033201;28;20043;-47
2024/01/31 08:11:13;;;;;;;7.97;2.10;;;4.70;88.10;;;;;;5032954;28;20017;-47
2024/01/31 08:13:41;;;;;;;10.10;2.35;;;4.80;87.70;;;;;;5032590;28;20026;-50
2024/01/31 08:16:10;;;;;;;10.73;1.63;;;4.90;87.30;;;;;;5034328;28;20044;-48
2024/01/31 08:18:36;;;;;;;8.77;2.80;;;4.90;87.10;;;;;;5034474;28;20041;-49
2024/01/31 08:21:02;;;;;;;8.88;1.88;;;4.90;86.80;;;;;;5041502;28;20053;-51
2024/01/31 08:23:30;;;;;;;9.00;1.83;;;4.90;86.80;;;;;;5052943;28;20060;-50
2024/01/31 08:25:56;;;;;;;6.30;1.65;;;5.00;86.70;;;;;;5051058;28;20047;-48
2024/01/31 08:28:21;;;;;;;8.52;2.00;;;5.10;86.70;;;;;;5053289;28;20349;-53
2024/01/31 08:30:49;;;;;;;9.43;1.25;;;5.20;86.70;;;;;;5049534;28;20021;-47
2024/01/31 08:33:15;;;;;;;7.97;1.48;;;5.20;86.20;;;;;;5047430;28;20079;-50
2024/01/31 08:35:41;;;;;;;14.60;3.35;;;5.20;85.90;;;;;;5046056;28;20053;-47
2024/01/31 08:38:06;;;;;;;9.25;2.30;;;5.20;85.50;;;;;;5054360;28;20045;-50
2024/01/31 08:40:34;;;;;;;6.55;1.50;;;5.30;85.30;;;;;;5047499;28;20350;-52
2024/01/31 08:43:00;;;;;;;9.27;1.90;;;5.30;85.10;;;;;;5053267;28;20108;-51
2024/01/31 08:45:26;;;;;;;10.15;1.70;;;5.40;84.70;;;;;;5053614;28;20537;-49
2024/01/31 08:47:51;;;;;;;5.68;1.55;;;5.40;84.40;;;;;;5051311;28;20653;-53
2024/01/31 08:50:17;;;;;;;9.45;1.52;;;5.40;84.40;;;;;;5054157;28;20021;-50
2024/01/31 08:52:42;;;;;;;4.60;1.55;;;5.40;84.20;;;;;;5035541;28;20036;-49
2024/01/31 08:55:12;;;;;;;12.15;2.28;;;5.40;84.10;;;;;;5050673;28;20031;-49
2024/01/31 08:57:38;;;;;;;5.18;1.30;;;5.50;84.30;;;;;;5050799;28;20403;-53
2024/01/31 09:00:05;;;;;;;7.90;2.00;;;5.50;84.00;;;;;;5050333;28;20033;-53
2024/01/31 09:02:31;;;;;;;6.45;1.52;;;5.40;84.30;;;;;;5044784;28;20132;-52
2024/01/31 09:04:56;;;;;;;6.70;1.35;;;5.40;84.00;;;;;;5043459;28;20079;-48
2024/01/31 09:07:24;;;;;;;7.55;1.23;;;5.40;83.70;;;;;;5050982;28;20032;-48
2024/01/31 09:09:53;;;;;;;5.35;2.00;;;5.40;84.00;;;;;;5030991;28;20052;-48
2024/01/31 09:12:19;;;;;;;10.60;2.10;;;5.50;83.80;;;;;;5044160;28;20090;-53
2024/01/31 09:14:45;;;;;;;5.82;1.58;;;5.60;83.70;;;;;;5034139;28;20048;-49
2024/01/31 09:17:10;;;;;;;7.53;1.60;;;5.60;83.30;;;;;;5051722;28;20498;-53
2024/01/31 09:19:36;;;;;;;8.02;1.95;;;5.70;83.40;;;;;;5043243;28;20442;-49
2024/01/31 09:22:05;;;;;;;6.30;1.60;;;5.70;83.20;;;;;;5052272;28;20086;-49
2024/01/31 09:24:30;;;;;;;9.73;1.40;;;5.70;83.20;;;;;;5052178;28;20029;-52
2024/01/31 09:26:56;;;;;;;10.52;1.83;;;5.80;82.70;;;;;;5053825;28;20041;-54
2024/01/31 09:29:22;;;;;;;5.43;1.98;;;5.80;82.70;;;;;;5053594;28;20029;-51
2024/01/31 09:31:47;;;;;;;7.30;1.67;;;5.90;82.90;;;;;;5053635;28;20040;-49
2024/01/31 09:34:13;;;;;;;9.95;1.67;;;5.90;82.60;;;;;;5052995;28;20020;-48
2024/01/31 09:36:38;;;;;;;6.35;1.75;;;5.90;82.80;;;;;;5053657;28;20069;-50
2024/01/31 09:39:05;;;;;;;8.75;1.60;;;5.90;82.50;;;;;;5034662;28;20119;-51
2024/01/31 09:41:31;;;;;;;7.45;2.78;;;5.90;82.00;;;;;;5053339;28;20427;-52
2024/01/31 09:43:59;;;;;;;6.60;1.33;;;6.00;81.50;;;;;;5053523;28;20025;-52
2024/01/31 09:46:27;;;;;;;3.15;1.05;;;6.00;81.00;;;;;;5051121;28;20505;-51
2024/01/31 09:48:52;;;;;;;7.88;1.50;;;6.00;80.80;;;;;;5047195;28;20037;-49
2024/01/31 09:51:22;;;;;;;6.20;1.20;;;6.10;80.80;;;;;;5052585;28;20028;-51
2024/01/31 09:53:57;;;;;;;11.30;2.03;;;6.20;80.80;;;;;;5050334;28;20105;-54
2024/01/31 09:56:27;;;;;;;7.55;1.35;;;6.20;80.00;;;;;;5053055;28;20053;-51
2024/01/31 09:58:54;;;;;;;5.90;1.10;;;6.20;80.30;;;;;;5052124;28;20036;-50
2024/01/31 10:01:21;;;;;;;9.15;1.67;;;6.20;79.90;;;;;;5051876;28;20029;-53
2024/01/31 10:03:47;;;;;;;7.72;1.67;;;6.20;79.10;;;;;;5051949;28;20445;-54
2024/01/31 10:06:15;;;;;;;5.55;1.58;;;6.20;79.60;;;;;;5052929;28;20044;-51
2024/01/31 10:08:41;;;;;;;5.95;1.58;;;6.20;79.00;;;;;;5052894;28;20033;-52
2024/01/31 10:11:07;;;;;;;5.53;1.45;;;6.20;78.70;;;;;;5052589;28;20033;-49
2024/01/31 10:13:35;;;;;;;4.82;1.45;;;6.20;78.40;;;;;;5052699;28;20021;-50
2024/01/31 10:16:00;;;;;;;5.70;1.40;;;6.30;78.80;;;;;;5051926;28;20537;-51
2024/01/31 10:18:28;;;;;;;6.20;2.08;;;6.30;78.50;;;;;;5052136;28;20029;-50
2024/01/31 10:20:55;;;;;;;5.93;2.35;;;6.30;78.30;;;;;;5050899;28;20581;-51
2024/01/31 10:23:20;;;;;;;9.35;3.72;;;6.30;78.60;;;;;;5052075;28;20438;-53
2024/01/31 10:25:46;;;;;;;7.90;1.70;;;6.30;78.40;;;;;;5051877;28;20123;-49
2024/01/31 10:28:18;;;;;;;4.82;1.75;;;6.30;78.00;;;;;;5052536;28;20063;-51
2024/01/31 10:30:50;;;;;;;3.55;1.40;;;6.30;77.60;;;;;;5051635;28;20057;-50
2024/01/31 10:33:15;;;;;;;4.47;1.73;;;6.30;77.50;;;;;;5051950;28;20082;-49
2024/01/31 10:35:46;;;;;;;3.58;1.48;;;6.30;77.70;;;;;;5050391;28;20040;-52
2024/01/31 10:38:13;;;;;;;4.72;2.03;;;6.40;77.90;;;;;;5041855;28;20025;-51
2024/01/31 10:40:43;;;;;;;5.65;1.55;;;6.50;78.20;;;;;;5033643;28;20071;-54
2024/01/31 10:43:09;;;;;;;5.78;1.92;;;6.50;78.40;;;;;;5050143;28;20024;-54
2024/01/31 10:45:35;;;;;;;4.20;1.92;;;6.50;78.20;;;;;;5050224;28;20033;-53
2024/01/31 10:48:04;;;;;;;6.22;2.55;;;6.60;78.20;;;;;;5051887;28;20033;-50
2024/01/31 10:50:30;;;;;;;5.27;2.23;;;6.40;77.70;;;;;;5052152;28;20100;-51
2024/01/31 10:52:58;;;;;;;5.40;2.33;;;6.50;78.10;;;;;;5051954;28;20060;-51
2024/01/31 10:55:25;;;;;;;8.75;2.67;;;6.60;78.00;;;;;;5044182;28;20032;-49
2024/01/31 10:57:53;;;;;;;6.25;3.22;;;6.60;78.30;;;;;;5052197;28;20070;-50
2024/01/31 11:00:30;;;;;;;10.52;3.22;;;6.70;78.40;;;;;;5041170;28;20051;-53
2024/01/31 11:02:57;;;;;;;5.50;3.17;;;6.70;77.30;;;;;;5051765;28;20031;-50
2024/01/31 11:05:24;;;;;;;4.90;2.88;;;6.70;77.60;;;;;;5052432;28;20400;-54
2024/01/31 11:07:50;;;;;;;10.77;3.58;;;6.70;76.70;;;;;;5032952;28;20057;-53
2024/01/31 11:10:23;;;;;;;4.85;2.88;;;6.80;76.70;;;;;;5048251;28;20053;-52
2024/01/31 11:13:00;;;;;;;5.50;3.05;;;6.70;77.20;;;;;;5051535;28;20051;-50
2024/01/31 11:15:29;;;;;;;5.57;3.55;;;6.70;76.50;;;;;;5051729;28;20017;-48
2024/01/31 11:18:10;;;;;;;4.18;2.92;;;6.80;76.50;;;;;;5052153;28;20131;-50
2024/01/31 11:20:39;;;;;;;5.88;3.55;;;6.70;76.90;;;;;;5042542;28;20045;-54
2024/01/31 11:23:08;;;;;;;5.20;3.20;;;6.80;77.00;;;;;;5010572;28;20022;-53
2024/01/31 11:25:36;;;;;;;5.57;3.67;;;6.90;77.00;;;;;;5022223;28;20033;-54
2024/01/31 11:28:04;;;;;;;6.72;4.43;;;6.90;77.10;;;;;;5024966;28;20033;-53
2024/01/31 11:30:31;;;;;;;9.30;4.18;;;6.90;77.20;;;;;;5013390;28;20045;-52
2024/01/31 11:32:57;;;;;;;7.38;4.60;;;6.90;77.20;;;;;;5020449;28;20485;-55
2024/01/31 11:35:25;;;;;;;6.88;4.70;;;6.80;76.80;;;;;;5024646;28;20022;-55
2024/01/31 11:37:54;;;;;;;6.20;4.43;;;6.90;76.80;;;;;;5024667;28;20156;-49
2024/01/31 11:40:19;;;;;;;7.38;4.47;;;6.90;76.90;;;;;;5028669;28;20033;-49
2024/01/31 11:42:47;;;;;;;6.80;5.20;;;6.90;77.20;;;;;;5024986;28;20094;-51
2024/01/31 11:45:15;;;;;;;8.15;4.82;;;6.80;76.50;;;;;;5013222;28;20025;-51
2024/01/31 11:47:44;;;;;;;8.60;4.55;;;6.90;77.70;;;;;;5025492;28;20586;-52
2024/01/31 11:50:10;;;;;;;8.98;5.35;;;6.90;76.50;;;;;;5030224;28;20022;-54
2024/01/31 11:52:37;;;;;;;6.93;4.78;;;7.00;76.80;;;;;;5031265;28;20060;-52
2024/01/31 11:55:03;;;;;;;8.57;5.28;;;7.10;77.30;;;;;;5023412;28;20485;-51
2024/01/31 11:57:29;;;;;;;8.35;5.55;;;7.10;76.20;;;;;;5030804;28;20040;-48
2024/01/31 11:59:55;;;;;;;7.07;5.55;;;6.90;75.80;;;;;;5014025;28;20030;-53
2024/01/31 12:02:21;;;;;;;6.72;5.65;;;6.70;75.70;;;;;;5024041;28;20076;-50
2024/01/31 12:04:51;;;;;;;8.57;5.57;;;6.60;75.80;;;;;;5028364;28;20021;-50
2024/01/31 12:07:21;;;;;;;7.35;5.03;;;6.60;76.20;;;;;;5027801;28;20323;-55
2024/01/31 12:09:47;;;;;;;7.88;5.70;;;6.50;76.10;;;;;;5030329;28;20022;-52
2024/01/31 12:12:13;;;;;;;8.82;6.80;;;6.50;76.70;;;;;;5023980;28;20336;-53
2024/01/31 12:14:39;;;;;;;9.48;5.72;;;6.50;77.00;;;;;;5021642;28;20324;-50
2024/01/31 12:17:24;;;;;;;7.28;5.80;;;6.50;77.30;;;;;;5011662;28;20116;-51
2024/01/31 12:20:01;;;;;;;7.60;5.40;;;6.40;77.20;;;;;;5023291;28;20033;-53
2024/01/31 12:22:26;;;;;;;7.65;6.25;;;6.40;77.00;;;;;;5038067;28;20040;-49
2024/01/31 12:24:52;;;;;;;7.43;6.00;;;6.40;77.50;;;;;;5048936;28;20753;-50
2024/01/31 12:27:18;;;;;;;8.43;6.82;;;6.40;77.50;;;;;;5050803;28;20040;-50
2024/01/31 12:29:46;;;;;;;9.45;7.28;;;6.40;77.40;;;;;;5050406;28;20025;-52
2024/01/31 12:32:14;;;;;;;9.27;6.38;;;6.50;77.90;;;;;;5038640;28;20484;-48
2024/01/31 12:34:40;;;;;;;9.13;6.90;;;6.40;77.80;;;;;;5050011;28;20025;-54
2024/01/31 12:37:05;;;;;;;7.53;6.32;;;6.50;77.60;;;;;;5040487;28;20110;-50
2024/01/31 12:39:35;;;;;;;9.40;6.32;;;6.50;77.30;;;;;;5042083;28;20036;-53
2024/01/31 12:42:04;;;;;;;9.73;6.38;;;6.50;77.00;;;;;;5049448;28;20737;-54
2024/01/31 12:44:30;;;;;;;8.45;6.03;;;6.60;77.00;;;;;;5050309;28;20105;-54
2024/01/31 12:46:58;;;;;;;7.82;4.95;;;6.60;76.20;;;;;;5042867;28;20037;-55
2024/01/31 12:49:24;;;;;;;6.82;4.85;;;6.50;76.20;;;;;;5045889;28;20029;-51
2024/01/31 12:51:52;;;;;;;6.97;5.10;;;6.60;76.00;;;;;;5053247;28;20021;-54